»·PEaware :: PH-TIM KSNA-KSAN

PH-TIM :: KSNA-KSAN

FLIGHT INFORMATION

Flight Status: Arrived
Operator: Privately registered:
Netherlands
More flights under this callsign
Pilot: Tim P. (6337)
Aircraft: CESSNA 172 SKYHAWK
(C172)
More flights by this aircraft type
Origin: KSNA John Wayne-Orange Co
United States
Destination: KSAN San Diego Intl-Lindbergh
United States
More flights between these airports :: More routes between these airports
Route: +
File this flight plan on PilotEdge
Remarks:
Altitude:
(Current/Filed)
0ft
Speed:
(Current/Filed)
0kts
Departed: 16-Sep-18 09:02 AM
Arrived: 16-Sep-18 09:42 AM
Distance/Time
Traveled:
66nm/0:40
Distance/Time
To Go:
Arrived

Flight Plot

Page will automatically refresh every two minutes.


Map Options




Map Legend


Flown Route
Filed Route
Departure Airport
Arrival Airport
Navaid (VOR, NDB)
Fix

Horizontal Profiles

Position Reports

Time Latitude Longitude Heading Altitude Ground
Speed
16-Sep-18 08:51 33.667170 -117.872136 225 60ft 0kts
16-Sep-18 08:52 33.667170 -117.872136 225 60ft 0kts
16-Sep-18 08:53 33.667131 -117.872251 277 60ft 4kts
16-Sep-18 08:54 33.669107 -117.870934 40 60ft 13kts
16-Sep-18 08:55 33.672082 -117.868139 27 60ft 14kts
16-Sep-18 08:56 33.673409 -117.867881 36 60ft 0kts
16-Sep-18 08:57 33.673408 -117.867881 35 60ft 0kts
16-Sep-18 08:58 33.674698 -117.866710 27 60ft 15kts
16-Sep-18 08:59 33.678306 -117.864423 29 60ft 14kts
16-Sep-18 09:00 33.679977 -117.863622 275 60ft 0kts
16-Sep-18 09:01 33.679977 -117.863622 275 60ft 0kts
16-Sep-18 09:02 33.679977 -117.863622 275 60ft 0kts
16-Sep-18 09:03 33.679977 -117.863622 275 60ft 0kts
16-Sep-18 09:04 33.676021 -117.866791 208 73ft 78kts
16-Sep-18 09:05 33.653911 -117.873112 166 777ft 85kts
16-Sep-18 09:06 33.630894 -117.867810 164 1450ft 87kts
16-Sep-18 09:07 33.606680 -117.862406 164 2087ft 90kts
16-Sep-18 09:08 33.582525 -117.856930 158 2695ft 89kts
16-Sep-18 09:09 33.561134 -117.842316 135 3243ft 89kts
16-Sep-18 09:10 33.543222 -117.821789 120 3766ft 87kts
16-Sep-18 09:11 33.531871 -117.801435 121 4149ft 91kts
16-Sep-18 09:12 33.511066 -117.776222 133 4677ft 93kts
16-Sep-18 09:13 33.494814 -117.759589 140 5044ft 91kts
16-Sep-18 09:14 33.470732 -117.737836 134 5469ft 97kts
16-Sep-18 09:15 33.453857 -117.715076 120 5315ft 116kts
16-Sep-18 09:16 33.434598 -117.679801 118 5434ft 109kts
16-Sep-18 09:17 33.418055 -117.655933 123 5401ft 113kts
16-Sep-18 09:18 33.396110 -117.620549 121 5359ft 112kts
16-Sep-18 09:19 33.381220 -117.594769 120 5327ft 113kts
16-Sep-18 09:20 33.359859 -117.567644 129 5350ft 114kts
16-Sep-18 09:21 33.338441 -117.540412 128 5410ft 112kts
16-Sep-18 09:22 33.314998 -117.515301 136 5433ft 114kts
16-Sep-18 09:23 33.290594 -117.491341 137 5475ft 113kts
16-Sep-18 09:24 33.267707 -117.465472 129 5509ft 112kts
16-Sep-18 09:25 33.244191 -117.440270 135 5508ft 115kts
16-Sep-18 09:26 33.216472 -117.421699 158 5498ft 117kts
16-Sep-18 09:27 33.185975 -117.409493 158 5516ft 115kts
16-Sep-18 09:28 33.156358 -117.394363 145 5504ft 114kts
16-Sep-18 09:29 33.127310 -117.379115 154 5506ft 116kts
16-Sep-18 09:30 33.097297 -117.364757 152 5515ft 115kts
16-Sep-18 09:31 33.066984 -117.351569 158 5511ft 116kts
16-Sep-18 09:32 33.036790 -117.338393 156 5511ft 116kts
16-Sep-18 09:33 33.006836 -117.324045 159 5289ft 118kts
16-Sep-18 09:34 32.976239 -117.311950 158 4933ft 116kts
16-Sep-18 09:35 32.945312 -117.300818 158 4571ft 115kts
16-Sep-18 09:36 32.914974 -117.289272 153 4249ft 115kts
16-Sep-18 09:37 32.884437 -117.276649 159 3866ft 122kts
16-Sep-18 09:38 32.850481 -117.264345 157 3133ft 129kts
16-Sep-18 09:39 32.818250 -117.250005 154 2821ft 121kts
16-Sep-18 09:40 32.787897 -117.230690 148 2403ft 129kts
16-Sep-18 09:41 32.755261 -117.208729 146 1457ft 134kts
16-Sep-18 09:42 32.742626 -117.173666 102 1027ft 106kts
16-Sep-18 09:43 32.727929 -117.164161 267 440ft 89kts
16-Sep-18 09:44 32.732120 -117.183703 292 14ft 32kts
16-Sep-18 09:45 32.733062 -117.184234 16 16ft 2kts
16-Sep-18 09:46 32.732748 -117.180074 61 17ft 9kts
16-Sep-18 09:47 32.732962 -117.179171 226 18ft 0kts
16-Sep-18 09:48 32.732962 -117.179171 226 18ft 0kts
16-Sep-18 09:49 32.732962 -117.179171 226 18ft 0kts

Navigation Log

Ident Type
Flight plan parsing failed, navigation log unavailable